WetterOnline ( https://www.wetteronline.de )

Wetter aktuell Bremerhaven

Aktuelles Wetter: Bremerhaven (11m)

6-stündlich | Neueste Meldungen
Ortszeit Temperatur Wetter
Mi, 12.08. 2:00 22.4° C leicht bewölkt
Di, 11.08. 20:00 30.2° C wolkenlos
Di, 11.08. 14:00 30.5° C wolkenlos
Di, 11.08. 8:00 20.2° C wolkenlos
Di, 11.08. 2:00 22.2° C wolkenlos
Mo, 10.08. 20:00 26.3° C wolkenlos
Mo, 10.08. 14:00 30.4° C leicht bewölkt
Mo, 10.08. 8:00 20.9° C wolkenlos
Ortszeit Temperatur Wetter
Mi, 12.08. 3:30 21.0° C wolkig
Mi, 12.08. 3:20 21.0° C wolkig
Mi, 12.08. 3:10 21.2° C wolkig
Mi, 12.08. 3:00 21.4° C wolkig
Mi, 12.08. 2:50 21.4° C wolkig
Mi, 12.08. 2:40 21.5° C wolkig
Mi, 12.08. 2:30 21.8° C wolkig
Mi, 12.08. 2:00 22.4° C leicht bewölkt
Ortszeit Relative Feuchte Sichtweite
Mi, 12.08. 2:00 63% 40 km
Di, 11.08. 20:00 42% 35 km
Di, 11.08. 14:00 41% 45 km
Di, 11.08. 8:00 82% 21 km
Di, 11.08. 2:00 76% 27 km
Mo, 10.08. 20:00 60% 35 km
Mo, 10.08. 14:00 49% 35 km
Mo, 10.08. 8:00 79% 17 km
Ortszeit Relative Feuchte Sichtweite
Mi, 12.08. 3:30 66% 45 km
Mi, 12.08. 3:20 66% -
Mi, 12.08. 3:10 66% -
Mi, 12.08. 3:00 65% 35 km
Mi, 12.08. 2:50 65% -
Mi, 12.08. 2:40 65% -
Mi, 12.08. 2:30 63% 45 km
Mi, 12.08. 2:00 63% 40 km
Ortszeit Niederschlagsmenge Niederschlagsart
Mi, 12.08. 2:00 0.1 l/m2 in 6 Std. -
Di, 11.08. 20:00 0.0 l/m2 in 12 Std. -
Di, 11.08. 14:00 0.0 l/m2 in 6 Std. -
Di, 11.08. 8:00 0.0 l/m2 in 12 Std. -
Di, 11.08. 2:00 0.0 l/m2 in 6 Std. -
Mo, 10.08. 20:00 0.1 l/m2 in 12 Std. Regen
Mo, 10.08. 14:00 0.0 l/m2 in 6 Std. -
Mo, 10.08. 8:00 0.0 l/m2 in 12 Std. -
Ortszeit Niederschlagsmenge Niederschlagsart
Mi, 12.08. 3:30 0.0 l/m2 in 1 Std. -
Mi, 12.08. 3:20 keine Meldung -
Mi, 12.08. 3:10 keine Meldung -
Mi, 12.08. 3:00 0.0 l/m2 in 1 Std. -
Mi, 12.08. 2:50 keine Meldung -
Mi, 12.08. 2:40 keine Meldung -
Mi, 12.08. 2:30 0.0 l/m2 in 1 Std. -
Mi, 12.08. 2:00 0.1 l/m2 in 1 Std. -
Ortszeit Stärke Spitze Richtung
km/h Bft. km/h Grad Sektor
Mi, 12.08. 2:00 18 3 32 80° O
Di, 11.08. 20:00 19 3 43 80° O
Di, 11.08. 14:00 22 4 40 100° O
Di, 11.08. 8:00 18 3 29 70° O
Di, 11.08. 2:00 13 3 30 70° O
Mo, 10.08. 20:00 11 2 59 60° NO
Mo, 10.08. 14:00 14 3 29 80° O
Mo, 10.08. 8:00 18 3 29 80° O
Ortszeit Stärke Spitze Richtung
km/h Bft. km/h Grad Sektor
Mi, 12.08. 3:30 19 3 28 90° O
Mi, 12.08. 3:20 19 3 - 90° O
Mi, 12.08. 3:10 18 3 - 80° O
Mi, 12.08. 3:00 17 3 30 80° O
Mi, 12.08. 2:50 17 3 - 80° O
Mi, 12.08. 2:40 19 3 - 80° O
Mi, 12.08. 2:30 18 3 29 80° O
Mi, 12.08. 2:00 18 3 29 80° O
Ortszeit Untergrenze Bedeckung Gattung
total tief tief mittel hoch
Mi, 12.08. 2:00 10500 m 5/8 0/8 - - -
Di, 11.08. 20:00 - 0/8 0/8 - - -
Di, 11.08. 14:00 - 0/8 0/8 - - -
Di, 11.08. 8:00 12000 m 0/8 0/8 - - -
Di, 11.08. 2:00 - 0/8 0/8 - - -
Mo, 10.08. 20:00 - 0/8 0/8 - - -
Mo, 10.08. 14:00 2700 m 2/8 2/8 - - -
Mo, 10.08. 8:00 - 0/8 0/8 - - -
Ortszeit Bedeckungsgrad in Achtel und Wolkenuntergrenze
Mi, 12.08. 3:30 8(10500m) 8(10500m)
Mi, 12.08. 3:20 8(10500m) 8(10500m)
Mi, 12.08. 3:10 8(10500m)
Mi, 12.08. 3:00 8(10500m) 8(10500m)
Mi, 12.08. 2:50 8(10500m) 8(10500m)
Mi, 12.08. 2:40 8(10500m) 8(10500m)
Mi, 12.08. 2:30 7(10500m) 7(10500m)
Mi, 12.08. 2:00 5(10500m)
Ortszeit Luftdruck NN (hPa) Tendenz (hPa in 3 Std.)
Mi, 12.08. 2:00 1019 + 0,4
Di, 11.08. 20:00 1017 - 0,5
Di, 11.08. 14:00 1019 - 0,3
Di, 11.08. 8:00 1019 + 0,2
Di, 11.08. 2:00 1019 + 1,2
Mo, 10.08. 20:00 1017 + 0,6
Mo, 10.08. 14:00 1017 - 0,5
Mo, 10.08. 8:00 1018 + 0,1
Ortszeit Luftdruck NN (hPa) Tendenz (hPa in 3 Std.)
Mi, 12.08. 3:30 1019 - 0,2
Mi, 12.08. 3:20 1019 keine Meldung
Mi, 12.08. 3:10 1019 keine Meldung
Mi, 12.08. 3:00 1018 - 0,3
Mi, 12.08. 2:50 1018 keine Meldung
Mi, 12.08. 2:40 1019 keine Meldung
Mi, 12.08. 2:30 1019 + 0,1
Mi, 12.08. 2:00 1019 + 0,4
Ortszeit Schneehöhe (cm)
Mi, 12.08. 2:00 -
Di, 11.08. 20:00 -
Di, 11.08. 14:00 -
Di, 11.08. 8:00 -
Di, 11.08. 2:00 -
Mo, 10.08. 20:00 -
Mo, 10.08. 14:00 -
Mo, 10.08. 8:00 -
Ortszeit Schneehöhe (cm)
Mi, 12.08. 3:30 -
Mi, 12.08. 3:20 -
Mi, 12.08. 3:10 -
Mi, 12.08. 3:00 -
Mi, 12.08. 2:50 -
Mi, 12.08. 2:40 -
Mi, 12.08. 2:30 -
Mi, 12.08. 2:00 -
Link zu dieser Seite / Seite empfehlen

Das Wetter in ...